sensor_id;sensor_type;location;lat;lon;timestamp;temperature;humidity
17968;DHT22;9109;48.050;11.696;2023-06-14T03:46:50;14.90;65.30
17968;DHT22;9109;48.050;11.696;2023-06-14T03:49:55;14.70;65.80
17968;DHT22;9109;48.050;11.696;2023-06-14T03:53:08;14.60;66.30
17968;DHT22;9109;48.050;11.696;2023-06-14T03:56:27;14.70;66.30
17968;DHT22;9109;48.050;11.696;2023-06-14T03:59:52;14.80;66.10
17968;DHT22;9109;48.050;11.696;2023-06-14T04:03:24;14.70;66.00
17968;DHT22;9109;48.050;11.696;2023-06-14T04:06:34;14.40;66.90
17968;DHT22;9109;48.050;11.696;2023-06-14T04:09:55;14.20;67.60
17968;DHT22;9109;48.050;11.696;2023-06-14T04:13:10;14.40;67.40
17968;DHT22;9109;48.050;11.696;2023-06-14T04:16:50;14.50;67.60
17968;DHT22;9109;48.050;11.696;2023-06-14T04:20:31;14.50;67.90
17968;DHT22;9109;48.050;11.696;2023-06-14T04:24:00;14.40;68.00
17968;DHT22;9109;48.050;11.696;2023-06-14T04:27:17;14.30;68.50
17968;DHT22;9109;48.050;11.696;2023-06-14T04:30:22;14.40;68.60
17968;DHT22;9109;48.050;11.696;2023-06-14T04:33:29;14.20;69.30
17968;DHT22;9109;48.050;11.696;2023-06-14T04:36:34;13.70;70.20
17968;DHT22;9109;48.050;11.696;2023-06-14T04:39:37;13.40;71.70
17968;DHT22;9109;48.050;11.696;2023-06-14T04:42:39;13.10;73.50
17968;DHT22;9109;48.050;11.696;2023-06-14T04:45:45;12.90;74.20
17968;DHT22;9109;48.050;11.696;2023-06-14T04:48:47;13.00;74.00
17968;DHT22;9109;48.050;11.696;2023-06-14T04:51:52;13.30;73.50
17968;DHT22;9109;48.050;11.696;2023-06-14T04:54:57;13.40;73.70
17968;DHT22;9109;48.050;11.696;2023-06-14T04:58:00;13.60;72.90
17968;DHT22;9109;48.050;11.696;2023-06-14T05:01:02;13.80;72.60
17968;DHT22;9109;48.050;11.696;2023-06-14T05:04:05;14.00;73.20
17968;DHT22;9109;48.050;11.696;2023-06-14T05:07:09;13.90;73.00
17968;DHT22;9109;48.050;11.696;2023-06-14T05:10:12;13.90;73.70
17968;DHT22;9109;48.050;11.696;2023-06-14T05:13:14;14.00;73.80
17968;DHT22;9109;48.050;11.696;2023-06-14T05:16:16;14.10;74.80
17968;DHT22;9109;48.050;11.696;2023-06-14T05:19:20;14.10;75.20
17968;DHT22;9109;48.050;11.696;2023-06-14T05:22:23;14.10;75.60
17968;DHT22;9109;48.050;11.696;2023-06-14T05:25:26;14.20;76.40
17968;DHT22;9109;48.050;11.696;2023-06-14T05:28:29;14.20;75.50
17968;DHT22;9109;48.050;11.696;2023-06-14T05:31:31;14.30;75.00
17968;DHT22;9109;48.050;11.696;2023-06-14T05:34:35;14.50;74.30
17968;DHT22;9109;48.050;11.696;2023-06-14T05:37:42;14.70;74.00
17968;DHT22;9109;48.050;11.696;2023-06-14T05:40:48;14.90;72.90
17968;DHT22;9109;48.050;11.696;2023-06-14T05:43:51;14.90;73.30
17968;DHT22;9109;48.050;11.696;2023-06-14T05:46:55;15.10;71.80
17968;DHT22;9109;48.050;11.696;2023-06-14T05:50:03;15.10;70.70
17968;DHT22;9109;48.050;11.696;2023-06-14T05:53:07;15.10;70.30
17968;DHT22;9109;48.050;11.696;2023-06-14T05:56:10;15.20;70.60
17968;DHT22;9109;48.050;11.696;2023-06-14T05:59:12;15.30;70.60
17968;DHT22;9109;48.050;11.696;2023-06-14T06:02:15;15.40;70.40
17968;DHT22;9109;48.050;11.696;2023-06-14T06:05:17;15.70;70.10
17968;DHT22;9109;48.050;11.696;2023-06-14T06:08:21;15.90;69.90
17968;DHT22;9109;48.050;11.696;2023-06-14T06:11:23;15.90;69.30
17968;DHT22;9109;48.050;11.696;2023-06-14T06:14:26;16.10;69.80
17968;DHT22;9109;48.050;11.696;2023-06-14T06:17:28;16.10;68.90
17968;DHT22;9109;48.050;11.696;2023-06-14T06:20:30;16.30;68.50
17968;DHT22;9109;48.050;11.696;2023-06-14T06:23:37;16.50;68.10
17968;DHT22;9109;48.050;11.696;2023-06-14T06:26:39;16.70;68.70
17968;DHT22;9109;48.050;11.696;2023-06-14T06:29:42;16.90;67.90
17968;DHT22;9109;48.050;11.696;2023-06-14T06:32:45;17.00;67.50
17968;DHT22;9109;48.050;11.696;2023-06-14T06:35:48;17.20;66.50
17968;DHT22;9109;48.050;11.696;2023-06-14T06:38:52;17.40;67.90
17968;DHT22;9109;48.050;11.696;2023-06-14T06:41:54;17.40;66.90
17968;DHT22;9109;48.050;11.696;2023-06-14T06:44:56;17.60;66.20
17968;DHT22;9109;48.050;11.696;2023-06-14T06:47:58;17.60;66.50
17968;DHT22;9109;48.050;11.696;2023-06-14T06:51:01;17.70;68.00
17968;DHT22;9109;48.050;11.696;2023-06-14T06:54:06;17.80;65.60
17968;DHT22;9109;48.050;11.696;2023-06-14T06:57:09;17.90;65.80
17968;DHT22;9109;48.050;11.696;2023-06-14T07:00:12;18.10;64.00
17968;DHT22;9109;48.050;11.696;2023-06-14T07:03:14;18.00;62.50
17968;DHT22;9109;48.050;11.696;2023-06-14T07:06:21;18.20;62.70
17968;DHT22;9109;48.050;11.696;2023-06-14T07:09:29;18.30;62.30
17968;DHT22;9109;48.050;11.696;2023-06-14T07:12:31;18.30;63.50
17968;DHT22;9109;48.050;11.696;2023-06-14T07:15:36;18.40;61.40
17968;DHT22;9109;48.050;11.696;2023-06-14T07:18:39;18.50;60.30
17968;DHT22;9109;48.050;11.696;2023-06-14T07:21:46;18.60;60.40
17968;DHT22;9109;48.050;11.696;2023-06-14T07:24:59;18.60;59.90
17968;DHT22;9109;48.050;11.696;2023-06-14T07:28:01;18.70;61.30
17968;DHT22;9109;48.050;11.696;2023-06-14T07:31:03;19.00;61.50
17968;DHT22;9109;48.050;11.696;2023-06-14T07:34:05;19.10;61.00
17968;DHT22;9109;48.050;11.696;2023-06-14T07:37:07;19.10;59.60
17968;DHT22;9109;48.050;11.696;2023-06-14T07:40:13;19.10;59.90
17968;DHT22;9109;48.050;11.696;2023-06-14T07:43:15;19.20;60.10
17968;DHT22;9109;48.050;11.696;2023-06-14T07:46:18;19.20;59.20
17968;DHT22;9109;48.050;11.696;2023-06-14T07:49:20;19.40;58.00
17968;DHT22;9109;48.050;11.696;2023-06-14T07:52:25;19.70;57.70
17968;DHT22;9109;48.050;11.696;2023-06-14T07:55:29;19.80;56.50
17968;DHT22;9109;48.050;11.696;2023-06-14T07:58:35;20.00;56.10
17968;DHT22;9109;48.050;11.696;2023-06-14T08:01:41;19.90;56.20
17968;DHT22;9109;48.050;11.696;2023-06-14T08:04:47;20.00;56.20
17968;DHT22;9109;48.050;11.696;2023-06-14T08:07:55;20.20;54.10
17968;DHT22;9109;48.050;11.696;2023-06-14T08:11:01;20.30;54.40
17968;DHT22;9109;48.050;11.696;2023-06-14T08:14:04;20.20;52.00
17968;DHT22;9109;48.050;11.696;2023-06-14T08:17:07;20.20;52.40
17968;DHT22;9109;48.050;11.696;2023-06-14T08:20:11;20.40;52.20
17968;DHT22;9109;48.050;11.696;2023-06-14T08:23:19;20.50;50.90
17968;DHT22;9109;48.050;11.696;2023-06-14T08:26:24;20.60;51.10
17968;DHT22;9109;48.050;11.696;2023-06-14T08:29:31;20.70;52.30
17968;DHT22;9109;48.050;11.696;2023-06-14T08:32:43;20.70;52.30
17968;DHT22;9109;48.050;11.696;2023-06-14T08:35:48;21.00;52.00
17968;DHT22;9109;48.050;11.696;2023-06-14T08:38:50;21.20;51.30
17968;DHT22;9109;48.050;11.696;2023-06-14T08:41:55;21.20;50.20
17968;DHT22;9109;48.050;11.696;2023-06-14T08:44:58;21.00;49.50
17968;DHT22;9109;48.050;11.696;2023-06-14T08:48:03;20.90;49.60
17968;DHT22;9109;48.050;11.696;2023-06-14T08:51:06;21.00;51.60
17968;DHT22;9109;48.050;11.696;2023-06-14T08:54:12;21.10;50.00
17968;DHT22;9109;48.050;11.696;2023-06-14T08:57:24;21.20;49.10
17968;DHT22;9109;48.050;11.696;2023-06-14T09:00:33;21.20;50.10
17968;DHT22;9109;48.050;11.696;2023-06-14T09:03:40;21.20;50.60
17968;DHT22;9109;48.050;11.696;2023-06-14T09:06:43;21.30;49.60
17968;DHT22;9109;48.050;11.696;2023-06-14T09:09:46;21.40;50.00
17968;DHT22;9109;48.050;11.696;2023-06-14T09:12:49;21.40;49.30
17968;DHT22;9109;48.050;11.696;2023-06-14T09:15:52;21.50;50.90
17968;DHT22;9109;48.050;11.696;2023-06-14T09:18:57;21.60;49.00
17968;DHT22;9109;48.050;11.696;2023-06-14T09:22:00;21.90;50.90
17968;DHT22;9109;48.050;11.696;2023-06-14T09:25:03;22.00;50.40
17968;DHT22;9109;48.050;11.696;2023-06-14T09:31:48;22.30;51.40
17968;DHT22;9109;48.050;11.696;2023-06-14T09:35:20;22.50;49.00
17968;DHT22;9109;48.050;11.696;2023-06-14T09:38:34;22.20;49.00
17968;DHT22;9109;48.050;11.696;2023-06-14T09:41:52;22.10;48.30
17968;DHT22;9109;48.050;11.696;2023-06-14T09:45:00;22.10;48.80
17968;DHT22;9109;48.050;11.696;2023-06-14T09:51:15;22.20;48.40
17968;DHT22;9109;48.050;11.696;2023-06-14T09:54:25;22.10;47.30
17968;DHT22;9109;48.050;11.696;2023-06-14T09:57:29;22.10;46.70
17968;DHT22;9109;48.050;11.696;2023-06-14T10:00:36;22.10;47.50
17968;DHT22;9109;48.050;11.696;2023-06-14T10:03:40;22.10;48.50
17968;DHT22;9109;48.050;11.696;2023-06-14T10:06:45;22.30;49.70
17968;DHT22;9109;48.050;11.696;2023-06-14T10:09:49;22.20;47.40
17968;DHT22;9109;48.050;11.696;2023-06-14T10:12:52;22.20;47.00
17968;DHT22;9109;48.050;11.696;2023-06-14T10:16:01;22.30;48.60
17968;DHT22;9109;48.050;11.696;2023-06-14T10:19:13;22.50;48.00
17968;DHT22;9109;48.050;11.696;2023-06-14T10:22:21;22.60;46.20
17968;DHT22;9109;48.050;11.696;2023-06-14T10:25:29;22.80;46.70
17968;DHT22;9109;48.050;11.696;2023-06-14T10:28:31;23.00;45.20
17968;DHT22;9109;48.050;11.696;2023-06-14T10:31:43;23.10;45.20
17968;DHT22;9109;48.050;11.696;2023-06-14T10:34:54;22.80;45.10
17968;DHT22;9109;48.050;11.696;2023-06-14T10:38:06;23.10;45.30
17968;DHT22;9109;48.050;11.696;2023-06-14T10:41:09;23.30;45.60
17968;DHT22;9109;48.050;11.696;2023-06-14T10:44:31;23.50;44.40
17968;DHT22;9109;48.050;11.696;2023-06-14T10:47:39;23.60;44.50
17968;DHT22;9109;48.050;11.696;2023-06-14T10:50:42;23.90;47.10
17968;DHT22;9109;48.050;11.696;2023-06-14T10:53:46;23.90;45.60
17968;DHT22;9109;48.050;11.696;2023-06-14T10:56:49;23.80;45.20
17968;DHT22;9109;48.050;11.696;2023-06-14T10:59:51;23.70;45.90
17968;DHT22;9109;48.050;11.696;2023-06-14T11:03:31;23.50;44.70
17968;DHT22;9109;48.050;11.696;2023-06-14T11:06:46;23.60;45.80
17968;DHT22;9109;48.050;11.696;2023-06-14T11:10:04;23.70;45.10
17968;DHT22;9109;48.050;11.696;2023-06-14T11:13:08;23.60;44.80
17968;DHT22;9109;48.050;11.696;2023-06-14T11:16:11;23.30;44.90
17968;DHT22;9109;48.050;11.696;2023-06-14T11:19:15;22.90;45.10
17968;DHT22;9109;48.050;11.696;2023-06-14T11:22:18;22.60;45.30
17968;DHT22;9109;48.050;11.696;2023-06-14T11:25:20;22.70;46.40
17968;DHT22;9109;48.050;11.696;2023-06-14T11:28:22;23.00;46.40
17968;DHT22;9109;48.050;11.696;2023-06-14T11:31:24;23.10;46.60
17968;DHT22;9109;48.050;11.696;2023-06-14T11:34:28;23.20;47.50
17968;DHT22;9109;48.050;11.696;2023-06-14T11:37:30;23.50;47.10
17968;DHT22;9109;48.050;11.696;2023-06-14T11:40:33;23.40;45.70
17968;DHT22;9109;48.050;11.696;2023-06-14T11:43:35;23.30;47.40
17968;DHT22;9109;48.050;11.696;2023-06-14T11:46:38;23.50;49.00
17968;DHT22;9109;48.050;11.696;2023-06-14T11:49:42;23.90;46.80
17968;DHT22;9109;48.050;11.696;2023-06-14T11:52:43;24.20;45.90
17968;DHT22;9109;48.050;11.696;2023-06-14T11:55:46;24.00;44.90
17968;DHT22;9109;48.050;11.696;2023-06-14T11:58:48;23.70;46.10
17968;DHT22;9109;48.050;11.696;2023-06-14T12:01:52;23.50;45.40
17968;DHT22;9109;48.050;11.696;2023-06-14T12:04:56;23.60;46.40
17968;DHT22;9109;48.050;11.696;2023-06-14T12:07:59;24.00;45.70
17968;DHT22;9109;48.050;11.696;2023-06-14T12:11:03;24.10;46.80
17968;DHT22;9109;48.050;11.696;2023-06-14T12:14:05;24.00;45.10
17968;DHT22;9109;48.050;11.696;2023-06-14T12:17:07;24.20;46.60
17968;DHT22;9109;48.050;11.696;2023-06-14T12:20:12;24.40;45.20
17968;DHT22;9109;48.050;11.696;2023-06-14T12:23:17;24.60;45.70
17968;DHT22;9109;48.050;11.696;2023-06-14T12:26:19;24.90;45.00
17968;DHT22;9109;48.050;11.696;2023-06-14T12:29:22;24.70;43.30
17968;DHT22;9109;48.050;11.696;2023-06-14T12:32:24;24.40;43.70
17968;DHT22;9109;48.050;11.696;2023-06-14T12:35:27;24.60;44.20
17968;DHT22;9109;48.050;11.696;2023-06-14T12:38:29;25.00;43.90
17968;DHT22;9109;48.050;11.696;2023-06-14T12:41:32;24.80;41.70
17968;DHT22;9109;48.050;11.696;2023-06-14T12:44:34;24.60;42.80
17968;DHT22;9109;48.050;11.696;2023-06-14T12:47:41;24.50;42.90
17968;DHT22;9109;48.050;11.696;2023-06-14T12:50:44;24.80;42.90
17968;DHT22;9109;48.050;11.696;2023-06-14T12:53:46;25.00;45.10
17968;DHT22;9109;48.050;11.696;2023-06-14T12:56:48;25.10;42.50
17968;DHT22;9109;48.050;11.696;2023-06-14T12:59:51;25.20;43.70
17968;DHT22;9109;48.050;11.696;2023-06-14T13:02:53;25.30;41.50
17968;DHT22;9109;48.050;11.696;2023-06-14T13:05:56;25.30;42.70
17968;DHT22;9109;48.050;11.696;2023-06-14T13:08:59;25.30;42.40
17968;DHT22;9109;48.050;11.696;2023-06-14T13:12:02;25.40;43.40
17968;DHT22;9109;48.050;11.696;2023-06-14T13:15:05;25.30;42.00
17968;DHT22;9109;48.050;11.696;2023-06-14T13:18:07;25.20;42.30
17968;DHT22;9109;48.050;11.696;2023-06-14T13:21:10;25.30;43.00
17968;DHT22;9109;48.050;11.696;2023-06-14T13:24:12;25.50;42.60
17968;DHT22;9109;48.050;11.696;2023-06-14T13:27:15;25.50;42.30
17968;DHT22;9109;48.050;11.696;2023-06-14T13:30:17;25.40;41.40
17968;DHT22;9109;48.050;11.696;2023-06-14T13:33:19;25.30;41.00
17968;DHT22;9109;48.050;11.696;2023-06-14T13:36:22;25.40;41.00
17968;DHT22;9109;48.050;11.696;2023-06-14T13:39:24;25.70;42.40
17968;DHT22;9109;48.050;11.696;2023-06-14T13:42:26;25.70;40.90
17968;DHT22;9109;48.050;11.696;2023-06-14T13:45:28;25.60;39.60
17968;DHT22;9109;48.050;11.696;2023-06-14T13:48:30;25.50;40.20
17968;DHT22;9109;48.050;11.696;2023-06-14T13:51:33;25.40;40.90
17968;DHT22;9109;48.050;11.696;2023-06-14T13:54:35;25.30;41.40
17968;DHT22;9109;48.050;11.696;2023-06-14T13:57:37;24.90;40.30
17968;DHT22;9109;48.050;11.696;2023-06-14T14:00:39;24.60;41.00
17968;DHT22;9109;48.050;11.696;2023-06-14T14:03:41;24.60;41.50
17968;DHT22;9109;48.050;11.696;2023-06-14T14:06:45;24.90;41.40
17968;DHT22;9109;48.050;11.696;2023-06-14T14:09:47;25.20;41.10
17968;DHT22;9109;48.050;11.696;2023-06-14T14:12:50;25.20;41.10
17968;DHT22;9109;48.050;11.696;2023-06-14T14:15:54;25.30;41.70
17968;DHT22;9109;48.050;11.696;2023-06-14T14:18:55;25.20;41.20
17968;DHT22;9109;48.050;11.696;2023-06-14T14:21:59;25.40;41.20
17968;DHT22;9109;48.050;11.696;2023-06-14T14:25:01;25.30;40.50
17968;DHT22;9109;48.050;11.696;2023-06-14T14:28:04;25.20;40.40
17968;DHT22;9109;48.050;11.696;2023-06-14T14:31:05;25.50;40.90
17968;DHT22;9109;48.050;11.696;2023-06-14T14:34:07;25.60;39.40
17968;DHT22;9109;48.050;11.696;2023-06-14T14:37:11;25.50;39.90
17968;DHT22;9109;48.050;11.696;2023-06-14T14:40:13;25.30;39.50
17968;DHT22;9109;48.050;11.696;2023-06-14T14:43:17;24.80;38.20
17968;DHT22;9109;48.050;11.696;2023-06-14T14:46:19;24.70;39.80
17968;DHT22;9109;48.050;11.696;2023-06-14T14:49:21;24.80;38.90
17968;DHT22;9109;48.050;11.696;2023-06-14T14:52:24;25.10;41.10
17968;DHT22;9109;48.050;11.696;2023-06-14T14:55:27;25.30;41.20
17968;DHT22;9109;48.050;11.696;2023-06-14T14:58:29;25.40;40.40
17968;DHT22;9109;48.050;11.696;2023-06-14T15:01:31;25.20;40.50
17968;DHT22;9109;48.050;11.696;2023-06-14T15:04:33;25.40;41.50
17968;DHT22;9109;48.050;11.696;2023-06-14T15:07:36;25.50;41.10
17968;DHT22;9109;48.050;11.696;2023-06-14T15:10:40;25.60;41.00
17968;DHT22;9109;48.050;11.696;2023-06-14T15:13:42;25.80;41.60
17968;DHT22;9109;48.050;11.696;2023-06-14T15:16:43;26.00;40.40
17968;DHT22;9109;48.050;11.696;2023-06-14T15:19:45;25.70;40.00
17968;DHT22;9109;48.050;11.696;2023-06-14T15:22:49;25.60;40.30
17968;DHT22;9109;48.050;11.696;2023-06-14T15:25:51;25.30;40.40
17968;DHT22;9109;48.050;11.696;2023-06-14T15:28:53;25.20;40.30
17968;DHT22;9109;48.050;11.696;2023-06-14T15:31:55;25.20;40.40
17968;DHT22;9109;48.050;11.696;2023-06-14T15:34:58;25.30;40.60
17968;DHT22;9109;48.050;11.696;2023-06-14T15:38:02;25.50;39.80
17968;DHT22;9109;48.050;11.696;2023-06-14T15:41:03;25.50;40.00
17968;DHT22;9109;48.050;11.696;2023-06-14T15:44:05;25.30;38.90
17968;DHT22;9109;48.050;11.696;2023-06-14T15:47:08;25.10;40.70
17968;DHT22;9109;48.050;11.696;2023-06-14T15:50:10;24.90;39.90
17968;DHT22;9109;48.050;11.696;2023-06-14T15:53:13;24.90;40.30
17968;DHT22;9109;48.050;11.696;2023-06-14T15:56:16;25.00;40.50
17968;DHT22;9109;48.050;11.696;2023-06-14T15:59:18;25.00;40.80
17968;DHT22;9109;48.050;11.696;2023-06-14T16:02:19;25.00;40.00
17968;DHT22;9109;48.050;11.696;2023-06-14T16:05:21;24.90;40.40
17968;DHT22;9109;48.050;11.696;2023-06-14T16:08:25;24.90;39.80
17968;DHT22;9109;48.050;11.696;2023-06-14T16:11:26;24.80;40.50
17968;DHT22;9109;48.050;11.696;2023-06-14T16:14:28;24.70;41.50
17968;DHT22;9109;48.050;11.696;2023-06-14T16:17:30;24.70;42.70
17968;DHT22;9109;48.050;11.696;2023-06-14T16:20:32;24.50;43.00
17968;DHT22;9109;48.050;11.696;2023-06-14T16:23:35;24.30;43.40
17968;DHT22;9109;48.050;11.696;2023-06-14T16:26:37;24.20;44.00
17968;DHT22;9109;48.050;11.696;2023-06-14T16:29:39;24.10;45.30
17968;DHT22;9109;48.050;11.696;2023-06-14T16:32:41;24.10;45.10
17968;DHT22;9109;48.050;11.696;2023-06-14T16:35:43;24.30;45.10
17968;DHT22;9109;48.050;11.696;2023-06-14T16:38:47;24.20;44.30
17968;DHT22;9109;48.050;11.696;2023-06-14T16:41:49;24.10;44.50
17968;DHT22;9109;48.050;11.696;2023-06-14T16:44:50;24.10;44.20
17968;DHT22;9109;48.050;11.696;2023-06-14T16:47:52;24.00;43.80
17968;DHT22;9109;48.050;11.696;2023-06-14T16:50:56;24.00;44.10
17968;DHT22;9109;48.050;11.696;2023-06-14T16:53:59;23.90;44.60
17968;DHT22;9109;48.050;11.696;2023-06-14T16:57:01;24.10;44.70
17968;DHT22;9109;48.050;11.696;2023-06-14T17:00:04;24.00;44.40
17968;DHT22;9109;48.050;11.696;2023-06-14T17:03:07;23.90;45.20
17968;DHT22;9109;48.050;11.696;2023-06-14T17:06:09;23.80;44.80
17968;DHT22;9109;48.050;11.696;2023-06-14T17:09:12;23.70;44.10
17968;DHT22;9109;48.050;11.696;2023-06-14T17:12:15;23.60;45.10
17968;DHT22;9109;48.050;11.696;2023-06-14T17:15:17;23.70;46.20
17968;DHT22;9109;48.050;11.696;2023-06-14T17:18:19;23.60;45.20
17968;DHT22;9109;48.050;11.696;2023-06-14T17:21:20;23.60;45.20
17968;DHT22;9109;48.050;11.696;2023-06-14T17:24:24;23.50;45.30
17968;DHT22;9109;48.050;11.696;2023-06-14T17:27:26;23.40;46.10
17968;DHT22;9109;48.050;11.696;2023-06-14T17:30:28;23.30;45.80
17968;DHT22;9109;48.050;11.696;2023-06-14T17:33:30;23.30;45.90
17968;DHT22;9109;48.050;11.696;2023-06-14T17:36:32;23.30;46.30
17968;DHT22;9109;48.050;11.696;2023-06-14T17:39:35;23.20;46.80
17968;DHT22;9109;48.050;11.696;2023-06-14T17:42:40;23.00;47.10
17968;DHT22;9109;48.050;11.696;2023-06-14T17:45:42;22.90;47.80
17968;DHT22;9109;48.050;11.696;2023-06-14T17:48:43;22.80;48.00
17968;DHT22;9109;48.050;11.696;2023-06-14T17:51:45;22.80;47.40
17968;DHT22;9109;48.050;11.696;2023-06-14T17:54:49;22.70;46.90
17968;DHT22;9109;48.050;11.696;2023-06-14T17:57:51;22.60;47.90
17968;DHT22;9109;48.050;11.696;2023-06-14T18:00:53;22.40;48.30
17968;DHT22;9109;48.050;11.696;2023-06-14T18:03:55;22.30;48.90
17968;DHT22;9109;48.050;11.696;2023-06-14T18:06:57;22.20;49.40
17968;DHT22;9109;48.050;11.696;2023-06-14T18:10:02;22.00;49.10
17968;DHT22;9109;48.050;11.696;2023-06-14T18:13:04;21.90;50.10
17968;DHT22;9109;48.050;11.696;2023-06-14T18:16:06;22.00;49.80
17968;DHT22;9109;48.050;11.696;2023-06-14T18:19:07;22.10;50.60
17968;DHT22;9109;48.050;11.696;2023-06-14T18:22:09;22.10;50.00
17968;DHT22;9109;48.050;11.696;2023-06-14T18:25:14;22.00;50.40
17968;DHT22;9109;48.050;11.696;2023-06-14T18:28:16;22.00;50.60
17968;DHT22;9109;48.050;11.696;2023-06-14T18:31:18;21.80;50.70
17968;DHT22;9109;48.050;11.696;2023-06-14T18:34:20;21.80;50.40
17968;DHT22;9109;48.050;11.696;2023-06-14T18:37:23;21.70;50.30
17968;DHT22;9109;48.050;11.696;2023-06-14T18:40:26;21.60;50.80
17968;DHT22;9109;48.050;11.696;2023-06-14T18:43:28;21.60;51.90
17968;DHT22;9109;48.050;11.696;2023-06-14T18:46:32;21.60;51.70
17968;DHT22;9109;48.050;11.696;2023-06-14T18:49:34;21.50;51.40
17968;DHT22;9109;48.050;11.696;2023-06-14T18:52:36;21.50;51.90
17968;DHT22;9109;48.050;11.696;2023-06-14T18:55:39;21.50;52.60
17968;DHT22;9109;48.050;11.696;2023-06-14T18:58:43;21.50;51.90
17968;DHT22;9109;48.050;11.696;2023-06-14T19:01:45;21.50;51.30
17968;DHT22;9109;48.050;11.696;2023-06-14T19:04:47;21.30;51.60
17968;DHT22;9109;48.050;11.696;2023-06-14T19:07:49;21.30;51.80
17968;DHT22;9109;48.050;11.696;2023-06-14T19:10:53;21.20;51.90
17968;DHT22;9109;48.050;11.696;2023-06-14T19:13:55;21.20;52.20
17968;DHT22;9109;48.050;11.696;2023-06-14T19:16:56;21.20;52.10
17968;DHT22;9109;48.050;11.696;2023-06-14T19:19:59;21.10;52.70
17968;DHT22;9109;48.050;11.696;2023-06-14T19:23:01;21.10;51.90
17968;DHT22;9109;48.050;11.696;2023-06-14T19:26:06;21.00;52.70
17968;DHT22;9109;48.050;11.696;2023-06-14T19:29:08;20.90;52.50
17968;DHT22;9109;48.050;11.696;2023-06-14T19:32:11;20.80;53.10
17968;DHT22;9109;48.050;11.696;2023-06-14T19:35:12;20.80;54.40
17968;DHT22;9109;48.050;11.696;2023-06-14T19:38:15;20.60;55.30
17968;DHT22;9109;48.050;11.696;2023-06-14T19:41:18;20.50;55.50
17968;DHT22;9109;48.050;11.696;2023-06-14T19:44:25;20.60;55.80
17968;DHT22;9109;48.050;11.696;2023-06-14T19:47:27;20.50;55.80
17968;DHT22;9109;48.050;11.696;2023-06-14T19:50:29;20.50;56.30
17968;DHT22;9109;48.050;11.696;2023-06-14T19:53:31;20.50;55.90
17968;DHT22;9109;48.050;11.696;2023-06-14T19:56:34;20.50;56.10
17968;DHT22;9109;48.050;11.696;2023-06-14T19:59:36;20.40;56.30
17968;DHT22;9109;48.050;11.696;2023-06-14T20:02:38;20.30;56.50
17968;DHT22;9109;48.050;11.696;2023-06-14T20:05:41;20.30;56.50
17968;DHT22;9109;48.050;11.696;2023-06-14T20:08:43;20.40;56.90
17968;DHT22;9109;48.050;11.696;2023-06-14T20:11:47;20.40;56.70
17968;DHT22;9109;48.050;11.696;2023-06-14T20:14:49;20.40;56.40
17968;DHT22;9109;48.050;11.696;2023-06-14T20:17:56;20.30;56.70
17968;DHT22;9109;48.050;11.696;2023-06-14T20:20:59;20.20;56.60
17968;DHT22;9109;48.050;11.696;2023-06-14T20:24:01;20.20;56.70
17968;DHT22;9109;48.050;11.696;2023-06-14T20:27:06;20.20;57.10
17968;DHT22;9109;48.050;11.696;2023-06-14T20:30:09;20.20;57.20
17968;DHT22;9109;48.050;11.696;2023-06-14T20:33:11;20.20;57.10
17968;DHT22;9109;48.050;11.696;2023-06-14T20:36:13;20.20;56.90
17968;DHT22;9109;48.050;11.696;2023-06-14T20:39:15;20.20;56.70
17968;DHT22;9109;48.050;11.696;2023-06-14T20:42:22;20.00;57.40
17968;DHT22;9109;48.050;11.696;2023-06-14T20:45:25;19.90;57.90
17968;DHT22;9109;48.050;11.696;2023-06-14T20:48:27;19.80;58.10
17968;DHT22;9109;48.050;11.696;2023-06-14T20:51:30;19.90;58.30
17968;DHT22;9109;48.050;11.696;2023-06-14T20:54:32;19.90;58.70
17968;DHT22;9109;48.050;11.696;2023-06-14T20:57:38;19.90;59.00
17968;DHT22;9109;48.050;11.696;2023-06-14T21:00:40;20.00;58.80
17968;DHT22;9109;48.050;11.696;2023-06-14T21:03:42;19.90;59.10
17968;DHT22;9109;48.050;11.696;2023-06-14T21:06:44;19.90;58.80
17968;DHT22;9109;48.050;11.696;2023-06-14T21:09:46;19.80;59.00
17968;DHT22;9109;48.050;11.696;2023-06-14T21:12:50;19.70;59.50
17968;DHT22;9109;48.050;11.696;2023-06-14T21:15:55;19.80;59.90
17968;DHT22;9109;48.050;11.696;2023-06-14T21:18:57;20.00;59.70
17968;DHT22;9109;48.050;11.696;2023-06-14T21:21:59;20.00;59.30
17968;DHT22;9109;48.050;11.696;2023-06-14T21:25:01;19.90;59.50
17968;DHT22;9109;48.050;11.696;2023-06-14T21:28:05;19.80;59.90
17968;DHT22;9109;48.050;11.696;2023-06-14T21:31:09;19.70;60.00
17968;DHT22;9109;48.050;11.696;2023-06-14T21:34:11;19.60;59.80
17968;DHT22;9109;48.050;11.696;2023-06-14T21:37:13;19.80;59.80
17968;DHT22;9109;48.050;11.696;2023-06-14T21:40:15;19.80;59.60
17968;DHT22;9109;48.050;11.696;2023-06-14T21:43:20;19.60;59.60
17968;DHT22;9109;48.050;11.696;2023-06-14T21:46:21;19.50;59.60
17968;DHT22;9109;48.050;11.696;2023-06-14T21:49:23;19.30;60.60
17968;DHT22;9109;48.050;11.696;2023-06-14T21:52:25;19.20;60.60
17968;DHT22;9109;48.050;11.696;2023-06-14T21:55:27;19.10;60.80
17968;DHT22;9109;48.050;11.696;2023-06-14T21:58:31;19.30;61.20
17968;DHT22;9109;48.050;11.696;2023-06-14T22:01:33;19.50;60.70
17968;DHT22;9109;48.050;11.696;2023-06-14T22:04:35;19.50;61.00
17968;DHT22;9109;48.050;11.696;2023-06-14T22:07:37;19.60;61.50
17968;DHT22;9109;48.050;11.696;2023-06-14T22:10:39;19.50;60.50
17968;DHT22;9109;48.050;11.696;2023-06-14T22:13:42;19.50;60.80
17968;DHT22;9109;48.050;11.696;2023-06-14T22:16:48;19.50;60.70
17968;DHT22;9109;48.050;11.696;2023-06-14T22:20:18;19.60;60.40
17968;DHT22;9109;48.050;11.696;2023-06-14T22:23:43;19.50;60.60
17968;DHT22;9109;48.050;11.696;2023-06-14T22:27:13;19.60;60.70
17968;DHT22;9109;48.050;11.696;2023-06-14T22:30:36;19.50;61.00
17968;DHT22;9109;48.050;11.696;2023-06-14T22:34:06;19.40;61.60
17968;DHT22;9109;48.050;11.696;2023-06-14T22:37:24;19.40;61.60
17968;DHT22;9109;48.050;11.696;2023-06-14T22:40:52;19.30;62.20
17968;DHT22;9109;48.050;11.696;2023-06-14T22:44:20;19.20;61.60
17968;DHT22;9109;48.050;11.696;2023-06-14T22:47:41;19.30;61.70
17968;DHT22;9109;48.050;11.696;2023-06-14T22:51:13;19.20;61.80
17968;DHT22;9109;48.050;11.696;2023-06-14T22:54:57;19.20;62.00
17968;DHT22;9109;48.050;11.696;2023-06-14T22:58:06;19.20;61.90
